This is the latest recevied weather packets stored in our database for station/object G4KVI. If no packets are shown the sender has not sent any weather packets the latest 1 day(s).
| Time | Temp. | Humidity | Pressure | Rain* | Wind** | Luminosity | Snow |
|---|---|---|---|---|---|---|---|
| 1778095804 | 12.22° C | 50% | 1015.7 hPa | 0 mm | - | 7 W/m² | - |
| 1778095204 | 12.22° C | 49% | 1015.9 hPa | 0 mm | - | 11 W/m² | - |
| 1778094904 | 12.22° C | 49% | 1015.7 hPa | 0 mm | - | 13 W/m² | - |
| 1778094304 | 12.78° C | 49% | 1015.9 hPa | 0 mm | - | 17 W/m² | - |
| 1778093704 | 12.78° C | 48% | 1015.9 hPa | 0 mm | - | 26 W/m² | - |
| 1778093404 | 12.78° C | 48% | 1015.7 hPa | 0 mm | - | 24 W/m² | - |
| 1778092504 | 13.33° C | 48% | 1015.7 hPa | 0 mm | - | 34 W/m² | - |
| 1778091304 | 13.33° C | 46% | 1015.7 hPa | 0 mm | - | 56 W/m² | - |
| 1778091004 | 13.33° C | 46% | 1015.5 hPa | 0 mm | - | 56 W/m² | - |
| 1778090404 | 13.33° C | 46% | 1015.5 hPa | 0 mm | - | 52 W/m² | - |
| 1778089804 | 13.33° C | 46% | 1015.5 hPa | 0 mm | - | 47 W/m² | - |
| 1778089504 | 13.33° C | 46% | 1015.4 hPa | 0 mm | - | 57 W/m² | - |
| 1778089204 | 13.33° C | 45% | 1015.4 hPa | 0 mm | - | 61 W/m² | - |
| 1778088904 | 13.33° C | 46% | 1015.5 hPa | 0 mm | - | 80 W/m² | - |
| 1778088004 | 13.33° C | 46% | 1015.4 hPa | 0 mm | - | 105 W/m² | - |
| 1778087704 | 13.33° C | 46% | 1015.4 hPa | 0 mm | - | 111 W/m² | - |
| 1778087404 | 13.89° C | 46% | 1015.3 hPa | 0 mm | - | 118 W/m² | - |
| 1778087104 | 13.89° C | 45% | 1015.1 hPa | 0 mm | - | 139 W/m² | - |
| 1778086504 | 13.89° C | 45% | 1015.1 hPa | 0 mm | - | 116 W/m² | - |
| 1778086204 | 13.89° C | 45% | 1015.2 hPa | 0 mm | - | 104 W/m² | - |
| 1778085604 | 14.44° C | 44% | 1015.4 hPa | 0 mm | - | 142 W/m² | - |
| 1778066104 | 13.33° C | 46% | 1016.3 hPa | 0 mm | - | 621 W/m² | - |
| 1778063704 | 12.78° C | 47% | 1016.2 hPa | 0 mm | - | 489 W/m² | - |
| 1778063104 | 12.78° C | 48% | 1016.4 hPa | 0 mm | - | 788 W/m² | - |
| 1778060404 | 11.67° C | 55% | 1016.4 hPa | 0 mm | - | 457 W/m² | - |
* Rain latest hour (hover to see other rain measurements)
** Current wind speed in m/s (hover to see current wind gust speed)